Terminal Aerodrome Forecast
Issued by NWS Chicago, IL

Home | Current Version | Previous Version | Text Only | Print | Product List | Glossary Off
Versions: 1 2 3 4 5 6 7 8 9 10 11 12 13 14 15 16 17 18 19 20 21 22 23 24 25 26 27 28 29 30

489
FTUS43 KLOT 172349 CCA
TAFRFD
TAF COR
KRFD 172349Z 1800/1824 18012G18KT 2SM -DZ BR OVC007
     FM180300 17007KT 1 1/2SM -DZ BR OVC004
     FM180600 17003KT 1SM -DZ BR OVC003
      TEMPO 1806/1809 1/2SM FG
     FM180900 36008KT 2SM -DZ BR OVC004
     FM181400 36016G26KT 3SM -RA BR BKN006 OVC015 PROB30 1814/1817
      3SM -RASN
     FM181800 34017G30KT P6SM VCSH OVC025=

USA.gov is the U.S. government's official web portal to all federal, state and local government web resources and services.